Time;durP1;ratioP1;P1;durP2;ratioP2;P2;SDS_P1;SDS_P2;PMS_P1;PMS_P2;Temp;Humidity;BMP_temperature;BMP_pressure;BME280_temperature;BME280_humidity;BME280_pressure;Samples;Min_cycle;Max_cycle;Signal;HPM_P1;HPM_P2
2022/03/25 00:02:17;;;;;;;;;;;;;;;21.31;35.88;102808.47;5069665;28;20296;-83
2022/03/25 00:04:43;;;;;;;;;;;;;;;21.32;35.73;102815.66;5069849;28;19917;-83
2022/03/25 00:07:08;;;;;;;;;;;;;;;21.31;35.62;102808.47;5069747;28;20349;-83
2022/03/25 00:09:34;;;;;;;;;;;;;;;21.30;35.79;102808.75;5053789;28;19920;-83
2022/03/25 00:11:59;;;;;;;;;;;;;;;21.30;35.85;102804.09;5053022;28;19959;-82
2022/03/25 00:14:24;;;;;;;;;;;;;;;21.30;35.91;102806.00;5052875;28;19920;-85
2022/03/25 00:16:50;;;;;;;;;;;;;;;21.29;35.85;102810.69;5036077;28;20019;-83
2022/03/25 00:19:15;;;;;;;;;;;;;;;21.29;35.85;102813.44;5054361;28;19917;-83
2022/03/25 00:21:41;;;;;;;;;;;;;;;21.28;35.93;102814.50;5069723;28;20288;-82
2022/03/25 00:24:06;;;;;;;;;;;;;;;21.29;35.97;102812.59;5054180;28;19920;-83
2022/03/25 00:26:31;;;;;;;;;;;;;;;21.28;35.68;102816.44;5052782;28;19928;-83
2022/03/25 00:28:57;;;;;;;;;;;;;;;21.27;35.71;102818.38;5036241;28;19928;-82
2022/03/25 00:31:22;;;;;;;;;;;;;;;21.28;35.68;102821.94;5053083;28;19927;-83
2022/03/25 00:33:51;;;;;;;;;;;;;;;21.26;35.81;102816.69;5036888;28;20007;-83
2022/03/25 00:36:18;;;;;;;;;;;;;;;21.26;35.77;102822.19;5036003;28;19962;-82
2022/03/25 00:38:44;;;;;;;;;;;;;;;21.26;35.62;102819.44;5053481;28;19916;-83
2022/03/25 00:41:11;;;;;;;;;;;;;;;21.25;35.87;102816.97;5053654;28;20387;-82
2022/03/25 00:43:36;;;;;;;;;;;;;;;21.25;35.82;102812.31;5069049;28;20019;-82
2022/03/25 00:46:02;;;;;;;;;;;;;;;21.26;35.54;102815.88;5053423;28;19979;-82
2022/03/25 00:48:30;;;;;;;;;;;;;;;21.25;35.97;102815.03;5035931;28;20028;-85
2022/03/25 00:50:55;;;;;;;;;;;;;;;21.25;35.67;102814.22;5069535;28;20280;-82
2022/03/25 00:53:21;;;;;;;;;;;;;;;21.24;35.95;102810.63;5053455;28;19925;-82
2022/03/25 00:55:46;;;;;;;;;;;;;;;21.24;35.83;102816.13;5054266;28;20020;-82
2022/03/25 00:58:11;;;;;;;;;;;;;;;21.23;35.74;102816.41;5053428;28;19979;-82
2022/03/25 01:00:37;;;;;;;;;;;;;;;21.24;35.93;102804.31;5052656;28;19928;-82
2022/03/25 01:03:03;;;;;;;;;;;;;;;21.22;35.88;102804.59;5035552;28;20441;-82
2022/03/25 01:05:28;;;;;;;;;;;;;;;21.22;35.81;102811.97;5069114;28;19921;-84
2022/03/25 01:07:53;;;;;;;;;;;;;;;21.21;35.82;102811.16;5036339;28;19921;-82
2022/03/25 01:10:19;;;;;;;;;;;;;;;21.22;35.76;102811.97;5052305;28;19943;-82
2022/03/25 01:12:44;;;;;;;;;;;;;;;21.22;35.87;102817.47;5069009;28;19925;-82
2022/03/25 01:15:09;;;;;;;;;;;;;;;21.21;35.94;102810.34;5053550;28;20000;-82
2022/03/25 01:17:35;;;;;;;;;;;;;;;21.20;35.59;102809.50;5054641;28;19928;-82
2022/03/25 01:20:00;;;;;;;;;;;;;;;21.20;35.79;102808.69;5040060;28;20388;-82
2022/03/25 01:22:25;;;;;;;;;;;;;;;21.20;35.63;102814.19;5056660;28;19921;-83
2022/03/25 01:24:51;;;;;;;;;;;;;;;21.19;35.63;102813.34;5056510;28;19971;-82
2022/03/25 01:27:17;;;;;;;;;;;;;;;21.20;35.95;102814.19;5058289;28;20257;-82
2022/03/25 01:29:42;;;;;;;;;;;;;;;21.20;35.76;102819.69;5039359;28;20016;-82
2022/03/25 01:32:08;;;;;;;;;;;;;;;21.18;35.68;102809.78;5057914;28;19956;-82
2022/03/25 01:34:34;;;;;;;;;;;;;;;21.18;35.89;102814.44;5057244;28;20015;-83
2022/03/25 01:36:59;;;;;;;;;;;;;;;21.17;35.90;102808.13;5056147;28;19921;-82
2022/03/25 01:39:25;;;;;;;;;;;;;;;21.17;35.56;102805.38;5056649;28;19943;-82
2022/03/25 01:41:50;;;;;;;;;;;;;;;21.16;35.92;102795.47;5072729;28;20384;-82
2022/03/25 01:44:23;;;;;;;;;;;;;;;21.16;35.66;102798.19;5057198;28;19921;-83
2022/03/25 01:46:48;;;;;;;;;;;;;;;21.16;35.79;102800.94;5039537;28;19924;-82
2022/03/25 01:49:14;;;;;;;;;;;;;;;21.16;35.86;102792.72;5056636;28;19920;-83
2022/03/25 01:51:40;;;;;;;;;;;;;;;21.16;36.02;102798.19;5073176;28;20035;-82
2022/03/25 01:54:10;;;;;;;;;;;;;;;21.16;35.92;102800.13;5039096;28;20380;-82
2022/03/25 01:56:36;;;;;;;;;;;;;;;21.16;35.83;102800.13;5056942;28;20415;-82
2022/03/25 01:59:01;;;;;;;;;;;;;;;21.15;35.89;102809.47;5072385;28;19984;-82
2022/03/25 02:01:26;;;;;;;;;;;;;;;21.15;35.93;102801.25;5038954;28;20020;-82
2022/03/25 02:03:52;;;;;;;;;;;;;;;21.14;35.90;102802.31;5072357;28;19979;-82
2022/03/25 02:06:17;;;;;;;;;;;;;;;21.13;36.00;102809.72;5039047;28;19966;-82
2022/03/25 02:08:42;;;;;;;;;;;;;;;21.14;35.53;102802.31;5056308;28;19928;-83
2022/03/25 02:11:09;;;;;;;;;;;;;;;21.13;35.96;102806.97;5055410;28;19928;-81
2022/03/25 02:13:34;;;;;;;;;;;;;;;21.13;35.96;102801.50;5055923;28;20328;-83
2022/03/25 02:15:59;;;;;;;;;;;;;;;21.13;35.71;102797.91;5055647;28;19994;-82
2022/03/25 02:18:25;;;;;;;;;;;;;;;21.13;35.74;102809.72;5055603;28;20361;-82
2022/03/25 02:20:50;;;;;;;;;;;;;;;21.13;35.94;102797.91;5071891;28;19975;-82
2022/03/25 02:23:16;;;;;;;;;;;;;;;21.12;35.85;102799.84;5055162;28;20008;-82
2022/03/25 02:25:42;;;;;;;;;;;;;;;21.12;35.84;102797.09;5055752;28;20272;-83
2022/03/25 02:28:08;;;;;;;;;;;;;;;21.12;35.68;102799.84;5054799;28;19921;-82
2022/03/25 02:30:34;;;;;;;;;;;;;;;21.12;35.81;102797.09;5055962;28;20011;-83
2022/03/25 02:33:01;;;;;;;;;;;;;;;21.11;35.88;102800.91;5055092;28;20365;-82
2022/03/25 02:35:37;;;;;;;;;;;;;;;21.12;35.99;102796.28;5056751;28;19921;-82
2022/03/25 02:38:03;;;;;;;;;;;;;;;21.13;35.88;102800.66;5071673;28;19968;-82
2022/03/25 02:40:28;;;;;;;;;;;;;;;21.11;35.82;102789.09;5071908;28;19921;-82
2022/03/25 02:42:53;;;;;;;;;;;;;;;21.11;35.82;102797.34;5071245;28;19924;-82
2022/03/25 02:45:22;;;;;;;;;;;;;;;21.10;35.76;102796.53;5055686;28;19928;-83
2022/03/25 02:47:47;;;;;;;;;;;;;;;21.10;36.04;102791.03;5055267;28;19925;-82
2022/03/25 02:50:12;;;;;;;;;;;;;;;21.10;35.99;102798.44;5071448;28;19970;-82
2022/03/25 02:52:37;;;;;;;;;;;;;;;21.10;35.87;102793.78;5037885;28;19924;-83
2022/03/25 02:55:03;;;;;;;;;;;;;;;21.09;35.98;102794.88;5071049;28;19921;-82
2022/03/25 02:57:28;;;;;;;;;;;;;;;21.09;36.05;102794.03;5055633;28;20309;-82
2022/03/25 02:59:54;;;;;;;;;;;;;;;21.09;35.95;102797.63;5071206;28;20011;-82
2022/03/25 03:02:19;;;;;;;;;;;;;;;21.09;36.00;102799.53;5071099;28;19927;-82
2022/03/25 03:04:45;;;;;;;;;;;;;;;21.08;35.90;102797.88;5054909;28;19940;-82
2022/03/25 03:07:10;;;;;;;;;;;;;;;21.08;35.83;102795.13;5054251;28;19921;-82
2022/03/25 03:09:35;;;;;;;;;;;;;;;21.08;36.05;102797.88;5055501;28;20287;-84
2022/03/25 03:12:01;;;;;;;;;;;;;;;21.07;35.93;102794.31;5071050;28;19921;-83
2022/03/25 03:14:26;;;;;;;;;;;;;;;21.07;35.88;102797.06;5054130;28;19921;-82
2022/03/25 03:16:51;;;;;;;;;;;;;;;21.07;35.81;102796.25;5037234;28;19932;-82
2022/03/25 03:19:16;;;;;;;;;;;;;;;21.07;35.73;102802.56;5070582;28;20397;-82
2022/03/25 03:21:42;;;;;;;;;;;;;;;21.07;36.01;102799.00;5070783;28;19925;-82
2022/03/25 03:24:08;;;;;;;;;;;;;;;21.06;35.76;102800.88;5036971;28;19923;-82
2022/03/25 03:26:34;;;;;;;;;;;;;;;21.06;36.04;102797.31;5054701;28;19967;-83
2022/03/25 03:28:59;;;;;;;;;;;;;;;21.05;35.90;102796.50;5037831;28;19971;-82
2022/03/25 03:31:24;;;;;;;;;;;;;;;21.05;35.78;102788.25;5070926;28;19990;-82
2022/03/25 03:33:50;;;;;;;;;;;;;;;21.05;36.00;102793.75;5071026;28;19920;-82
2022/03/25 03:36:15;;;;;;;;;;;;;;;21.05;35.72;102796.50;5053453;28;19921;-82
2022/03/25 03:38:40;;;;;;;;;;;;;;;21.06;35.82;102797.31;5054609;28;20015;-84
2022/03/25 03:41:05;;;;;;;;;;;;;;;21.04;35.85;102803.09;5053093;28;19925;-82
2022/03/25 03:43:31;;;;;;;;;;;;;;;21.04;35.93;102800.34;5037245;28;19928;-82
2022/03/25 03:45:56;;;;;;;;;;;;;;;21.04;36.01;102789.34;5053779;28;20419;-82
2022/03/25 03:48:21;;;;;;;;;;;;;;;21.03;35.81;102795.09;5070070;28;19986;-82
2022/03/25 03:50:46;;;;;;;;;;;;;;;21.05;36.00;102795.66;5054723;28;19921;-82
2022/03/25 03:53:11;;;;;;;;;;;;;;;21.03;35.92;102790.44;5053607;28;19925;-82
2022/03/25 03:55:37;;;;;;;;;;;;;;;21.04;35.84;102803.09;5070117;28;19921;-82
2022/03/25 03:58:02;;;;;;;;;;;;;;;21.03;36.02;102801.41;5054223;28;19921;-82
2022/03/25 04:00:28;;;;;;;;;;;;;;;21.03;36.00;102804.16;5070209;28;19917;-82
2022/03/25 04:02:55;;;;;;;;;;;;;;;21.02;35.90;102794.28;5052968;28;19925;-83
2022/03/25 04:05:21;;;;;;;;;;;;;;;21.02;36.05;102797.03;5053309;28;19967;-83
2022/03/25 04:07:47;;;;;;;;;;;;;;;21.01;35.80;102795.34;5069932;28;19925;-83
2022/03/25 04:10:12;;;;;;;;;;;;;;;21.02;35.82;102798.94;5036954;28;19924;-82
2022/03/25 04:12:38;;;;;;;;;;;;;;;21.01;35.93;102800.03;5036532;28;20365;-83
2022/03/25 04:15:04;;;;;;;;;;;;;;;21.01;35.98;102798.09;5069680;28;20316;-82
2022/03/25 04:17:29;;;;;;;;;;;;;;;21.01;35.93;102809.09;5053134;28;20023;-82
2022/03/25 04:19:55;;;;;;;;;;;;;;;21.01;35.85;102802.78;5054147;28;20376;-83
2022/03/25 04:22:20;;;;;;;;;;;;;;;21.00;35.73;102804.69;5036496;28;19921;-82
2022/03/25 04:24:45;;;;;;;;;;;;;;;20.99;35.98;102807.69;5036267;28;19921;-82
2022/03/25 04:27:10;;;;;;;;;;;;;;;20.99;36.09;102808.56;5052921;28;19925;-82
2022/03/25 04:29:36;;;;;;;;;;;;;;;20.99;35.79;102813.19;5069601;28;19935;-82
2022/03/25 04:32:01;;;;;;;;;;;;;;;20.98;35.90;102817.88;5054724;28;19923;-82
2022/03/25 04:34:26;;;;;;;;;;;;;;;20.99;35.73;102811.28;5069745;28;19921;-83
2022/03/25 04:36:51;;;;;;;;;;;;;;;20.98;36.12;102815.13;5053868;28;19971;-82
2022/03/25 04:39:17;;;;;;;;;;;;;;;20.97;35.82;102813.47;5069428;28;19925;-82
2022/03/25 04:41:42;;;;;;;;;;;;;;;20.96;35.95;102815.41;5053635;28;20353;-84
2022/03/25 04:44:07;;;;;;;;;;;;;;;20.98;36.00;102811.56;5069196;28;19920;-82
2022/03/25 04:46:34;;;;;;;;;;;;;;;20.96;35.99;102809.91;5053816;28;19963;-81
2022/03/25 04:48:59;;;;;;;;;;;;;;;20.96;35.99;102817.28;5036114;28;19956;-81
2022/03/25 04:51:25;;;;;;;;;;;;;;;20.96;35.74;102814.53;5052269;28;19921;-82
2022/03/25 04:53:50;;;;;;;;;;;;;;;20.95;35.82;102816.47;5069019;28;19921;-82
2022/03/25 04:56:15;;;;;;;;;;;;;;;20.94;35.79;102820.31;5053310;28;20055;-82
2022/03/25 04:58:40;;;;;;;;;;;;;;;20.95;35.81;102821.97;5069683;28;19959;-82
2022/03/25 05:01:06;;;;;;;;;;;;;;;20.94;36.05;102823.06;5036573;28;19920;-82
2022/03/25 05:03:31;;;;;;;;;;;;;;;20.94;35.79;102823.06;5036367;28;19924;-82
2022/03/25 05:05:57;;;;;;;;;;;;;;;20.94;35.85;102824.97;5035610;28;19916;-82
2022/03/25 05:08:22;;;;;;;;;;;;;;;20.93;35.75;102821.41;5052350;28;19974;-81
2022/03/25 05:10:48;;;;;;;;;;;;;;;20.93;35.87;102821.41;5053511;28;20380;-83
2022/03/25 05:13:13;;;;;;;;;;;;;;;20.93;36.02;102809.59;5053652;28;19943;-82
2022/03/25 05:15:38;;;;;;;;;;;;;;;20.92;35.94;102816.19;5052462;28;19921;-83
2022/03/25 05:18:04;;;;;;;;;;;;;;;20.92;36.03;102816.19;5035747;28;20332;-82
2022/03/25 05:20:29;;;;;;;;;;;;;;;20.92;35.74;102825.25;5036237;28;20255;-82
2022/03/25 05:22:54;;;;;;;;;;;;;;;20.92;36.05;102825.25;5053489;28;19975;-82
2022/03/25 05:25:20;;;;;;;;;;;;;;;20.92;35.74;102821.69;5052427;28;19925;-81
2022/03/25 05:27:45;;;;;;;;;;;;;;;20.91;35.92;102825.50;5035989;28;20361;-82
2022/03/25 05:30:11;;;;;;;;;;;;;;;20.91;35.89;102822.75;5036299;28;19921;-82
2022/03/25 05:32:38;;;;;;;;;;;;;;;20.90;35.91;102826.59;5052657;28;19921;-82
2022/03/25 05:35:04;;;;;;;;;;;;;;;20.90;36.04;102827.41;5068783;28;19921;-82
2022/03/25 05:37:30;;;;;;;;;;;;;;;20.89;35.92;102824.91;5053756;28;19939;-82
2022/03/25 05:39:55;;;;;;;;;;;;;;;20.89;35.76;102819.44;5035458;28;20360;-82
2022/03/25 05:42:20;;;;;;;;;;;;;;;20.89;35.94;102831.25;5052092;28;19921;-82
2022/03/25 05:44:45;;;;;;;;;;;;;;;20.88;35.91;102829.59;5053515;28;19917;-81
2022/03/25 05:47:11;;;;;;;;;;;;;;;20.88;35.98;102829.59;5068965;28;20010;-81
2022/03/25 05:49:36;;;;;;;;;;;;;;;20.88;35.79;102831.50;5053336;28;19921;-82
2022/03/25 05:52:02;;;;;;;;;;;;;;;20.87;35.92;102830.69;5052102;28;20378;-82
2022/03/25 05:54:27;;;;;;;;;;;;;;;20.87;35.80;102832.63;5035510;28;19917;-82
2022/03/25 05:56:52;;;;;;;;;;;;;;;20.87;35.91;102832.63;5068564;28;19972;-81
2022/03/25 05:59:18;;;;;;;;;;;;;;;20.87;35.80;102829.88;5053239;28;20335;-79
2022/03/25 06:01:43;;;;;;;;;;;;;;;20.86;35.93;102833.69;5069008;28;19972;-81
2022/03/25 06:04:09;;;;;;;;;;;;;;;20.87;35.91;102840.88;5054840;28;19920;-82
2022/03/25 06:06:34;;;;;;;;;;;;;;;20.85;36.00;102840.28;5056788;28;19928;-81
2022/03/25 06:08:59;;;;;;;;;;;;;;;20.85;35.98;102841.09;5055309;28;19928;-81
2022/03/25 06:11:24;;;;;;;;;;;;;;;20.86;35.76;102839.19;5057042;28;19928;-82
2022/03/25 06:13:50;;;;;;;;;;;;;;;20.86;36.09;102844.69;5056687;28;19916;-84
2022/03/25 06:16:17;;;;;;;;;;;;;;;20.86;35.96;102850.16;5071591;28;19920;-82
2022/03/25 06:18:42;;;;;;;;;;;;;;;20.86;35.82;102853.75;5056641;28;19979;-81
2022/03/25 06:21:07;;;;;;;;;;;;;;;20.86;36.06;102858.41;5038725;28;20015;-82
2022/03/25 06:23:32;;;;;;;;;;;;;;;20.86;35.82;102855.66;5038951;28;19921;-81
2022/03/25 06:25:59;;;;;;;;;;;;;;;20.85;35.71;102857.59;5056169;28;20280;-82
2022/03/25 06:28:24;;;;;;;;;;;;;;;20.85;36.03;102860.34;5054811;28;20370;-81
2022/03/25 06:30:50;;;;;;;;;;;;;;;20.86;35.95;102858.41;5056483;28;19956;-83
2022/03/25 06:33:15;;;;;;;;;;;;;;;20.85;36.02;102865.84;5054867;28;20016;-81
2022/03/25 06:35:40;;;;;;;;;;;;;;;20.85;35.72;102865.84;5071497;28;19921;-82
2022/03/25 06:38:06;;;;;;;;;;;;;;;20.85;35.89;102871.31;5071462;28;19917;-81
2022/03/25 06:40:32;;;;;;;;;;;;;;;20.85;35.87;102871.31;5056120;28;19917;-81
2022/03/25 06:42:57;;;;;;;;;;;;;;;20.84;35.92;102866.06;5055003;28;20008;-82
2022/03/25 06:45:23;;;;;;;;;;;;;;;20.84;35.78;102869.69;5072526;28;20452;-81
2022/03/25 06:47:48;;;;;;;;;;;;;;;20.85;35.96;102867.75;5056462;28;20369;-81
2022/03/25 06:50:15;;;;;;;;;;;;;;;20.85;35.91;102870.50;5038462;28;20000;-82
2022/03/25 06:52:41;;;;;;;;;;;;;;;20.85;35.85;102865.00;5038115;28;19924;-81
2022/03/25 06:55:07;;;;;;;;;;;;;;;20.85;35.92;102871.31;5054622;28;20347;-82
2022/03/25 06:57:32;;;;;;;;;;;;;;;20.85;35.79;102865.00;5071205;28;20363;-81
2022/03/25 06:59:57;;;;;;;;;;;;;;;20.85;35.85;102865.00;5054514;28;19921;-82
2022/03/25 07:02:23;;;;;;;;;;;;;;;20.83;35.98;102876.25;5055667;28;20020;-81
2022/03/25 07:04:49;;;;;;;;;;;;;;;20.85;35.97;102884.25;5054590;28;19928;-81
2022/03/25 07:07:18;;;;;;;;;;;;;;;20.85;35.60;102878.75;5037555;28;20353;-80
2022/03/25 07:09:43;;;;;;;;;;;;;;;20.83;35.79;102887.22;5038176;28;20023;-80
2022/03/25 07:12:09;;;;;;;;;;;;;;;20.84;35.78;102877.06;5055450;28;19995;-82
2022/03/25 07:14:34;;;;;;;;;;;;;;;20.83;36.10;102889.16;5054765;28;20063;-82
2022/03/25 07:16:59;;;;;;;;;;;;;;;20.85;36.04;102884.25;5053541;28;19921;-83
2022/03/25 07:19:25;;;;;;;;;;;;;;;20.83;35.85;102884.47;5054419;28;19921;-83
2022/03/25 07:21:53;;;;;;;;;;;;;;;20.84;36.05;102891.66;5071289;28;20352;-81
2022/03/25 07:24:20;;;;;;;;;;;;;;;20.83;36.00;102895.47;5036942;28;19920;-78
2022/03/25 07:26:45;;;;;;;;;;;;;;;20.83;36.07;102891.91;5054806;28;19921;-81
2022/03/25 07:29:11;;;;;;;;;;;;;;;20.84;36.03;102896.28;5055121;28;20023;-80
2022/03/25 07:31:36;;;;;;;;;;;;;;;20.85;36.18;102897.97;5053385;28;19924;-78
2022/03/25 07:34:02;;;;;;;;;;;;;;;20.84;36.10;102894.41;5054077;28;20258;-81
2022/03/25 07:36:27;;;;;;;;;;;;;;;20.82;36.20;102898.50;5070395;28;20034;-84
2022/03/25 07:38:53;;;;;;;;;;;;;;;20.81;36.20;102908.63;5054191;28;19924;-80
2022/03/25 07:41:19;;;;;;;;;;;;;;;20.82;36.39;102904.81;5054800;28;20400;-82
2022/03/25 07:43:44;;;;;;;;;;;;;;;20.82;36.68;102902.06;5055247;28;19917;-84
2022/03/25 07:46:10;;;;;;;;;;;;;;;20.83;36.59;102913.88;5036774;28;19966;-78
2022/03/25 07:48:35;;;;;;;;;;;;;;;20.84;36.74;102910.88;5054429;28;19920;-81
2022/03/25 07:51:01;;;;;;;;;;;;;;;20.85;36.67;102918.03;5036759;28;20058;-84
2022/03/25 07:53:26;;;;;;;;;;;;;;;20.87;36.78;102924.09;5036825;28;20011;-79
2022/03/25 07:55:51;;;;;;;;;;;;;;;20.87;36.76;102921.34;5054513;28;20027;-80
2022/03/25 07:58:19;;;;;;;;;;;;;;;20.89;36.47;102923.81;5036470;28;19917;-80
2022/03/25 08:00:45;;;;;;;;;;;;;;;20.88;36.93;102923.00;5054382;28;19917;-80
2022/03/25 08:03:11;;;;;;;;;;;;;;;20.90;36.66;102930.97;5054018;28;19974;-81
2022/03/25 08:05:38;;;;;;;;;;;;;;;20.90;36.77;102939.22;5070296;28;19921;-80
2022/03/25 08:08:03;;;;;;;;;;;;;;;20.90;36.83;102940.03;5054364;28;19921;-82
2022/03/25 08:10:29;;;;;;;;;;;;;;;20.89;36.68;102938.41;5054388;28;19921;-80
2022/03/25 08:12:56;;;;;;;;;;;;;;;20.89;36.55;102935.66;5036351;28;19916;-80
2022/03/25 08:15:22;;;;;;;;;;;;;;;20.90;36.60;102941.97;5070323;28;20383;-80
2022/03/25 08:17:48;;;;;;;;;;;;;;;20.89;36.69;102937.53;5054223;28;19921;-80
2022/03/25 08:20:18;;;;;;;;;;;;;;;20.89;36.47;102938.41;5053897;28;19932;-81
2022/03/25 08:22:43;;;;;;;;;;;;;;;20.90;36.62;102950.22;5055108;28;19921;-81
2022/03/25 08:27:58;;;;;;;;;;;;;;;20.90;36.64;102950.22;5067643;28;19971;-80
2022/03/25 08:30:25;;;;;;;;;;;;;;;20.90;36.47;102947.47;5069866;28;19921;-81
2022/03/25 08:32:51;;;;;;;;;;;;;;;20.90;36.66;102953.78;5069896;28;20032;-79
2022/03/25 08:35:16;;;;;;;;;;;;;;;20.90;36.54;102958.47;5036385;28;19978;-81
2022/03/25 08:37:41;;;;;;;;;;;;;;;20.90;36.41;102961.19;5052687;28;20003;-80
2022/03/25 08:40:08;;;;;;;;;;;;;;;20.90;36.59;102958.47;5052278;28;19921;-82
2022/03/25 08:42:33;;;;;;;;;;;;;;;20.89;36.43;102956.78;5036665;28;20070;-80
2022/03/25 08:44:58;;;;;;;;;;;;;;;20.89;36.39;102957.63;5069166;28;20387;-81
2022/03/25 08:47:23;;;;;;;;;;;;;;;20.89;36.49;102952.13;5053593;28;19917;-83
2022/03/25 08:49:49;;;;;;;;;;;;;;;20.88;36.36;102955.97;5053691;28;20262;-80
2022/03/25 08:52:14;;;;;;;;;;;;;;;20.89;36.08;102965.03;5053747;28;19924;-80
2022/03/25 08:54:39;;;;;;;;;;;;;;;20.88;36.33;102960.63;5054093;28;19960;-81
2022/03/25 08:57:04;;;;;;;;;;;;;;;20.87;36.30;102964.47;5036241;28;19920;-83
2022/03/25 08:59:30;;;;;;;;;;;;;;;20.86;36.31;102962.78;5053809;28;19920;-80
2022/03/25 09:01:56;;;;;;;;;;;;;;;20.86;36.24;102968.28;5053185;28;19920;-80
2022/03/25 09:04:21;;;;;;;;;;;;;;;20.85;36.18;102966.66;5036374;28;19917;-79
2022/03/25 09:06:47;;;;;;;;;;;;;;;20.85;36.13;102977.63;5054005;28;19912;-79
2022/03/25 09:09:12;;;;;;;;;;;;;;;20.85;36.12;102978.47;5035710;28;19924;-79
2022/03/25 09:11:37;;;;;;;;;;;;;;;20.83;36.09;102983.38;5054394;28;20004;-79
2022/03/25 09:14:02;;;;;;;;;;;;;;;20.83;35.86;102979.81;5069527;28;20276;-80
2022/03/25 09:16:28;;;;;;;;;;;;;;;20.83;35.80;102980.63;5069466;28;19932;-80
2022/03/25 09:18:53;;;;;;;;;;;;;;;20.83;35.85;102988.88;5069519;28;20288;-78
2022/03/25 09:21:18;;;;;;;;;;;;;;;20.83;35.94;102986.13;5052490;28;19967;-81
2022/03/25 09:23:43;;;;;;;;;;;;;;;20.82;35.76;102983.66;5069802;28;19924;-84
2022/03/25 09:26:09;;;;;;;;;;;;;;;20.81;35.81;102992.97;5052959;28;20379;-89
2022/03/25 09:28:34;;;;;;;;;;;;;;;20.79;35.79;102989.63;5069368;28;19920;-83
2022/03/25 09:30:59;;;;;;;;;;;;;;;20.78;35.93;102986.06;5069013;28;19924;-81
2022/03/25 09:33:26;;;;;;;;;;;;;;;20.79;36.05;102990.47;5068921;28;20294;-82
2022/03/25 09:35:51;;;;;;;;;;;;;;;20.80;36.00;102986.63;5068995;28;19963;-82
2022/03/25 09:38:16;;;;;;;;;;;;;;;20.82;35.93;102989.97;5052269;28;19960;-82
2022/03/25 09:40:43;;;;;;;;;;;;;;;20.83;35.84;102982.53;5039451;28;19921;-82
2022/03/25 09:43:08;;;;;;;;;;;;;;;20.83;35.73;102975.13;5039295;28;20015;-81
2022/03/25 09:45:35;;;;;;;;;;;;;;;20.83;35.68;102982.53;5038730;28;20014;-81
2022/03/25 09:48:00;;;;;;;;;;;;;;;20.82;35.98;102973.47;5039088;28;19917;-81
2022/03/25 09:50:27;;;;;;;;;;;;;;;20.82;36.03;102976.22;5039335;28;19979;-81
2022/03/25 09:52:52;;;;;;;;;;;;;;;20.84;35.93;102975.94;5055725;28;19921;-82
2022/03/25 09:55:18;;;;;;;;;;;;;;;20.83;36.06;102968.81;5056845;28;19921;-83
2022/03/25 09:57:44;;;;;;;;;;;;;;;20.82;36.01;102968.00;5056922;28;19923;-83
2022/03/25 10:00:12;;;;;;;;;;;;;;;20.83;35.92;102966.88;5038887;28;19917;-82
2022/03/25 10:02:37;;;;;;;;;;;;;;;20.83;35.88;102966.88;5056686;28;19916;-81
2022/03/25 10:05:14;;;;;;;;;;;;;;;20.85;35.83;102967.47;5056329;28;19943;-82
2022/03/25 10:07:43;;;;;;;;;;;;;;;20.86;35.92;102968.28;5038875;28;20015;-81
2022/03/25 10:10:13;;;;;;;;;;;;;;;20.86;35.85;102966.38;5039071;28;19917;-82
2022/03/25 10:12:39;;;;;;;;;;;;;;;20.87;35.84;102972.72;5056715;28;19917;-83
2022/03/25 10:15:12;;;;;;;;;;;;;;;20.86;35.97;102966.38;5056419;28;20278;-82
2022/03/25 10:17:44;;;;;;;;;;;;;;;20.87;35.96;102964.47;5038859;28;19917;-82
2022/03/25 10:20:10;;;;;;;;;;;;;;;20.87;35.89;102965.28;5038652;28;19916;-82
2022/03/25 10:22:35;;;;;;;;;;;;;;;20.88;35.91;102972.44;5071741;28;19921;-82
2022/03/25 10:25:01;;;;;;;;;;;;;;;20.88;35.89;102963.38;5038676;28;20319;-82
2022/03/25 10:27:29;;;;;;;;;;;;;;;20.90;35.74;102969.44;5056092;28;19928;-82
2022/03/25 10:29:55;;;;;;;;;;;;;;;20.89;35.94;102965.88;5038665;28;19944;-82
2022/03/25 10:32:24;;;;;;;;;;;;;;;20.90;35.84;102961.19;5039086;28;20377;-82
2022/03/25 10:35:19;;;;;;;;;;;;;;;20.89;36.14;102962.28;5056243;28;20016;-82
2022/03/25 10:37:54;;;;;;;;;;;;;;;20.90;36.06;102963.94;5025181;28;19971;-81
2022/03/25 10:40:20;;;;;;;;;;;;;;;20.91;35.94;102968.34;5071660;28;20012;-81
2022/03/25 10:43:05;;;;;;;;;;;;;;;20.91;36.18;102963.66;5071547;28;20299;-81
2022/03/25 10:45:30;;;;;;;;;;;;;;;20.91;35.89;102957.34;5055832;28;19923;-82
2022/03/25 10:48:09;;;;;;;;;;;;;;;20.90;36.03;102956.53;5071474;28;20288;-81
2022/03/25 10:50:53;;;;;;;;;;;;;;;20.91;36.10;102952.69;5038254;28;19996;-81
2022/03/25 10:53:20;;;;;;;;;;;;;;;20.92;36.19;102956.28;5056563;28;19927;-82
2022/03/25 10:55:52;;;;;;;;;;;;;;;20.91;36.20;102955.44;5037852;28;19971;-82
2022/03/25 10:58:17;;;;;;;;;;;;;;;20.91;36.04;102949.13;5055815;28;19924;-82
2022/03/25 11:00:43;;;;;;;;;;;;;;;20.92;36.04;102950.78;5071116;28;19925;-81
2022/03/25 11:03:08;;;;;;;;;;;;;;;20.93;36.18;102952.44;5071032;28;20019;-81
2022/03/25 11:05:34;;;;;;;;;;;;;;;20.93;36.19;102952.44;5037982;28;20007;-82
2022/03/25 11:08:00;;;;;;;;;;;;;;;20.93;36.12;102946.94;5054573;28;20063;-82
2022/03/25 11:10:25;;;;;;;;;;;;;;;20.95;36.05;102953.00;5054436;28;19982;-83
2022/03/25 11:12:51;;;;;;;;;;;;;;;20.93;36.07;102947.75;5055560;28;19921;-83
2022/03/25 11:15:18;;;;;;;;;;;;;;;20.94;36.15;102946.69;5055431;28;19917;-81
2022/03/25 11:17:44;;;;;;;;;;;;;;;20.95;36.12;102944.78;5038433;28;20011;-80
2022/03/25 11:20:11;;;;;;;;;;;;;;;20.96;36.21;102946.41;5055986;28;19921;-82
2022/03/25 11:22:48;;;;;;;;;;;;;;;20.98;36.03;102948.91;5055195;28;20356;-82
2022/03/25 11:25:15;;;;;;;;;;;;;;;20.97;35.94;102942.59;5055120;28;19920;-82
2022/03/25 11:27:44;;;;;;;;;;;;;;;20.98;36.23;102940.69;5056050;28;19947;-82
2022/03/25 11:30:10;;;;;;;;;;;;;;;20.98;36.35;102940.69;5055139;28;19917;-81
2022/03/25 11:32:48;;;;;;;;;;;;;;;20.98;36.24;102938.75;5053605;28;20011;-82
2022/03/25 11:35:17;;;;;;;;;;;;;;;21.00;36.18;102935.75;5055267;28;20280;-81
2022/03/25 11:37:43;;;;;;;;;;;;;;;20.99;36.24;102937.69;5055038;28;19956;-82
2022/03/25 11:40:14;;;;;;;;;;;;;;;21.00;36.11;102933.00;5053618;28;19928;-81
2022/03/25 11:42:43;;;;;;;;;;;;;;;21.01;36.36;102929.16;5054815;28;20368;-81
2022/03/25 11:45:25;;;;;;;;;;;;;;;21.02;36.17;102934.41;5036720;28;19917;-81
2022/03/25 11:48:03;;;;;;;;;;;;;;;21.01;36.24;102927.22;5037770;28;20304;-81
2022/03/25 11:50:34;;;;;;;;;;;;;;;21.01;36.47;102924.50;5054523;28;19921;-81
2022/03/25 11:53:20;;;;;;;;;;;;;;;21.01;36.38;102929.97;5054287;28;19921;-83
2022/03/25 11:56:00;;;;;;;;;;;;;;;21.01;36.38;102924.50;5036813;28;19967;-83
2022/03/25 11:58:26;;;;;;;;;;;;;;;21.03;36.32;102924.25;5036951;28;19917;-83
2022/03/25 12:00:58;;;;;;;;;;;;;;;21.02;36.35;102920.66;5069627;28;20287;-82
2022/03/25 12:03:40;;;;;;;;;;;;;;;21.04;36.40;102917.63;5036944;28;20000;-82
2022/03/25 12:06:05;;;;;;;;;;;;;;;21.05;36.38;102920.13;5036602;28;20361;-82
2022/03/25 12:08:35;;;;;;;;;;;;;;;21.06;36.40;102924.53;5054376;28;19975;-81
2022/03/25 12:11:01;;;;;;;;;;;;;;;21.05;36.39;102920.13;5036755;28;20320;-82
2022/03/25 12:13:45;;;;;;;;;;;;;;;21.06;36.41;102918.22;5036370;28;19917;-81
2022/03/25 12:16:10;;;;;;;;;;;;;;;21.07;36.21;102914.41;5053924;28;19917;-81
2022/03/25 12:18:39;;;;;;;;;;;;;;;21.08;36.26;102918.78;5052471;28;20357;-81
2022/03/25 12:21:10;;;;;;;;;;;;;;;21.08;36.25;102916.03;5036246;28;20258;-81
2022/03/25 12:23:35;;;;;;;;;;;;;;;21.09;36.00;102909.44;5054360;28;19924;-81
2022/03/25 12:26:00;;;;;;;;;;;;;;;21.08;36.12;102908.63;5036583;28;19929;-82
2022/03/25 12:28:26;;;;;;;;;;;;;;;21.09;36.46;102903.94;5069428;28;19921;-81
2022/03/25 12:30:51;;;;;;;;;;;;;;;21.10;36.24;102908.38;5052808;28;19921;-82
2022/03/25 12:33:18;;;;;;;;;;;;;;;21.09;36.20;102898.44;5069389;28;20377;-82
2022/03/25 12:35:44;;;;;;;;;;;;;;;21.11;36.45;102899.03;5053469;28;19928;-82